createdAt,value
2022-12-03T00:01:36.713Z,87.70
2022-12-03T00:04:05.057Z,87.83
2022-12-03T00:06:34.735Z,87.87
2022-12-03T00:09:03.438Z,87.80
2022-12-03T00:11:31.561Z,87.95
2022-12-03T00:13:59.526Z,88.01
2022-12-03T00:16:28.949Z,87.86
2022-12-03T00:18:56.992Z,88.01
2022-12-03T00:21:25.088Z,87.93
2022-12-03T00:23:53.168Z,87.69
2022-12-03T00:26:21.171Z,87.66
2022-12-03T00:28:49.245Z,87.80
2022-12-03T00:31:17.623Z,87.73
2022-12-03T00:33:47.124Z,87.76
2022-12-03T00:36:15.078Z,87.69
2022-12-03T00:38:43.151Z,87.68
2022-12-03T00:41:11.125Z,87.75
2022-12-03T00:43:39.078Z,87.73
2022-12-03T00:46:07.315Z,87.93
2022-12-03T00:48:35.438Z,87.94
2022-12-03T00:51:04.987Z,87.79
2022-12-03T00:53:33.186Z,87.86
2022-12-03T00:56:02.117Z,87.86
2022-12-03T00:58:30.115Z,87.75
2022-12-03T01:00:58.874Z,87.67
2022-12-03T01:03:26.928Z,87.65
2022-12-03T01:05:54.939Z,87.49
2022-12-03T01:08:24.264Z,87.54
2022-12-03T01:10:52.218Z,87.60
2022-12-03T01:13:20.305Z,87.56
2022-12-03T01:15:48.320Z,87.63
2022-12-03T01:18:16.359Z,87.60
2022-12-03T01:20:44.444Z,87.67
2022-12-03T01:23:12.407Z,87.45
2022-12-03T01:25:41.720Z,87.23
2022-12-03T01:28:09.725Z,87.27
2022-12-03T01:30:57.944Z,87.30
2022-12-03T01:33:24.980Z,87.48
2022-12-03T01:35:52.983Z,87.36
2022-12-03T01:38:21.480Z,87.41
2022-12-03T01:40:50.967Z,87.31
2022-12-03T01:43:18.954Z,87.37
2022-12-03T01:45:47.026Z,87.22
2022-12-03T01:48:16.608Z,87.19
2022-12-03T01:50:44.957Z,87.21
2022-12-03T01:53:15.732Z,86.99
2022-12-03T01:55:48.424Z,86.83
2022-12-03T01:58:21.668Z,86.71
2022-12-03T02:00:49.689Z,86.72
2022-12-03T02:03:20.844Z,86.71
2022-12-03T02:05:48.846Z,86.85
2022-12-03T02:08:28.651Z,86.88
2022-12-03T02:10:57.064Z,86.84
2022-12-03T02:13:26.374Z,86.68
2022-12-03T02:15:54.444Z,86.87
2022-12-03T02:18:22.659Z,86.91
2022-12-03T02:20:54.654Z,86.77
2022-12-03T02:23:24.065Z,86.78
2022-12-03T02:25:53.467Z,86.62
2022-12-03T02:28:21.466Z,86.65
2022-12-03T02:30:49.504Z,86.75
2022-12-03T02:33:17.583Z,86.52
2022-12-03T02:35:45.849Z,86.33
2022-12-03T02:38:16.729Z,86.41
2022-12-03T02:40:45.292Z,86.61
2022-12-03T02:43:14.878Z,86.53
2022-12-03T02:45:44.767Z,86.41
2022-12-03T02:48:15.084Z,86.24
2022-12-03T02:50:44.867Z,86.27
2022-12-03T02:53:15.143Z,86.29
2022-12-03T02:55:43.323Z,86.27
2022-12-03T02:58:11.961Z,86.14
2022-12-03T03:00:41.565Z,85.96
2022-12-03T03:03:10.077Z,86.03
2022-12-03T03:05:39.293Z,86.11
2022-12-03T03:08:08.049Z,86.22
2022-12-03T03:10:36.957Z,86.27
2022-12-03T03:13:10.015Z,86.11
2022-12-03T03:15:38.618Z,85.99
2022-12-03T03:18:08.831Z,85.98
2022-12-03T03:20:37.377Z,86.44
2022-12-03T03:23:15.967Z,86.33
2022-12-03T03:25:46.686Z,86.17
2022-12-03T03:28:15.337Z,86.30
2022-12-03T03:30:45.091Z,86.35
2022-12-03T03:33:15.520Z,86.27
2022-12-03T03:35:44.566Z,86.20
2022-12-03T03:38:12.723Z,86.14
2022-12-03T03:40:40.962Z,86.05
2022-12-03T03:43:09.119Z,86.14
2022-12-03T03:45:37.174Z,86.20
2022-12-03T03:48:06.319Z,86.17
2022-12-03T03:50:35.796Z,86.17
2022-12-03T03:53:04.148Z,86.31
2022-12-03T03:55:32.653Z,86.48
2022-12-03T03:58:00.801Z,86.63
2022-12-03T04:00:28.834Z,86.69
2022-12-03T04:02:56.874Z,86.63
2022-12-03T04:05:25.555Z,86.47
2022-12-03T04:07:54.944Z,86.33
2022-12-03T04:10:40.607Z,86.41
2022-12-03T04:13:08.602Z,86.41
2022-12-03T04:15:36.626Z,86.23
2022-12-03T04:18:22.589Z,86.24
2022-12-03T04:20:50.559Z,86.40
2022-12-03T04:23:18.913Z,86.41
2022-12-03T04:26:04.612Z,86.20
2022-12-03T04:28:51.171Z,86.14
2022-12-03T04:31:40.174Z,85.96
2022-12-03T04:34:25.903Z,85.95
2022-12-03T04:36:53.892Z,85.94
2022-12-03T04:39:23.277Z,85.88
2022-12-03T04:41:51.270Z,85.78
2022-12-03T04:44:36.163Z,85.67
2022-12-03T04:47:07.575Z,85.65
2022-12-03T04:49:38.174Z,85.72
2022-12-03T04:52:06.851Z,85.72
2022-12-03T04:54:36.417Z,85.73
2022-12-03T04:57:05.376Z,85.84
2022-12-03T04:59:35.880Z,85.85
2022-12-03T05:02:04.535Z,85.91
2022-12-03T05:04:32.741Z,86.00
2022-12-03T05:07:00.744Z,86.00
2022-12-03T05:09:28.799Z,85.94
2022-12-03T05:11:58.218Z,86.00
2022-12-03T05:14:26.291Z,85.81
2022-12-03T05:16:54.388Z,85.82
2022-12-03T05:19:42.492Z,85.65
2022-12-03T05:22:09.532Z,85.58
2022-12-03T05:24:37.477Z,85.46
2022-12-03T05:27:06.807Z,85.36
2022-12-03T05:29:34.818Z,85.34
2022-12-03T05:32:03.521Z,85.49
2022-12-03T05:34:31.568Z,85.48
2022-12-03T05:36:59.556Z,85.65
2022-12-03T05:39:27.587Z,85.45
2022-12-03T05:42:13.601Z,85.61
2022-12-03T05:44:43.005Z,85.49
2022-12-03T05:47:10.966Z,85.56
2022-12-03T05:49:38.928Z,85.40
2022-12-03T05:52:07.074Z,85.54
2022-12-03T05:54:35.144Z,85.72
2022-12-03T05:57:03.113Z,85.93
2022-12-03T05:59:31.222Z,86.10
2022-12-03T06:02:00.629Z,86.30
2022-12-03T06:04:28.676Z,86.68
2022-12-03T06:06:56.818Z,86.86
2022-12-03T06:09:24.789Z,87.32
2022-12-03T06:11:55.734Z,87.64
2022-12-03T06:14:23.733Z,88.05
2022-12-03T06:16:51.810Z,88.45
2022-12-03T06:19:21.059Z,88.66
2022-12-03T06:21:49.155Z,89.00
2022-12-03T06:24:17.164Z,89.12
2022-12-03T06:26:45.147Z,89.39
2022-12-03T06:29:13.467Z,89.64
2022-12-03T06:31:41.455Z,89.74
2022-12-03T06:34:09.429Z,89.86
2022-12-03T06:36:38.766Z,90.09
2022-12-03T06:39:06.732Z,90.28
2022-12-03T06:41:34.742Z,90.48
2022-12-03T06:44:02.791Z,90.56
2022-12-03T06:46:30.876Z,90.43
2022-12-03T06:48:58.842Z,90.34
2022-12-03T06:51:27.789Z,90.34
2022-12-03T06:53:57.155Z,90.26
2022-12-03T06:56:26.494Z,90.15
2022-12-03T06:58:57.747Z,90.06
2022-12-03T07:01:25.905Z,90.14
2022-12-03T07:03:53.949Z,90.15
2022-12-03T07:06:21.929Z,90.03
2022-12-03T07:08:49.913Z,89.90
2022-12-03T07:11:40.077Z,89.73
2022-12-03T07:14:09.107Z,89.79
2022-12-03T07:16:37.564Z,89.67
2022-12-03T07:19:06.108Z,89.61
2022-12-03T07:21:34.279Z,89.70
2022-12-03T07:24:02.480Z,89.82
2022-12-03T07:26:31.917Z,89.89
2022-12-03T07:29:00.096Z,89.97
2022-12-03T07:31:28.280Z,90.07
2022-12-03T07:33:56.367Z,90.39
2022-12-03T07:36:24.373Z,90.69
2022-12-03T07:38:52.369Z,90.86
2022-12-03T07:41:20.314Z,91.09
2022-12-03T07:43:49.559Z,91.33
2022-12-03T07:46:17.589Z,91.44
2022-12-03T07:48:45.724Z,91.54
2022-12-03T07:51:15.484Z,91.61
2022-12-03T07:53:43.774Z,91.72
2022-12-03T07:56:11.985Z,91.80
2022-12-03T07:58:40.007Z,91.82
2022-12-03T08:01:10.385Z,91.73
2022-12-03T08:03:39.448Z,91.82
2022-12-03T08:06:07.676Z,91.80
2022-12-03T08:08:35.707Z,91.74
2022-12-03T08:11:03.935Z,91.62
2022-12-03T08:13:31.885Z,91.54
2022-12-03T08:16:02.186Z,91.49
2022-12-03T08:18:31.518Z,91.51
2022-12-03T08:20:59.466Z,91.42
2022-12-03T08:23:27.694Z,91.29
2022-12-03T08:25:55.708Z,91.28
2022-12-03T08:28:25.738Z,91.16
2022-12-03T08:31:00.465Z,91.16
2022-12-03T08:33:29.785Z,90.76
2022-12-03T08:35:59.076Z,90.64
2022-12-03T08:38:28.017Z,90.53
2022-12-03T08:40:56.272Z,90.54
2022-12-03T08:43:25.535Z,90.40
2022-12-03T08:45:54.567Z,90.44
2022-12-03T08:48:30.028Z,90.39
2022-12-03T08:51:01.997Z,90.22
2022-12-03T08:53:33.030Z,90.25
2022-12-03T08:56:22.610Z,90.31
2022-12-03T08:58:53.180Z,90.11
2022-12-03T09:01:30.965Z,89.98
2022-12-03T09:04:12.036Z,90.02
2022-12-03T09:06:41.494Z,90.04
2022-12-03T09:09:09.525Z,90.11
2022-12-03T09:11:37.804Z,90.01
2022-12-03T09:14:06.119Z,90.04
2022-12-03T09:16:34.188Z,89.95
2022-12-03T09:19:02.379Z,89.74
2022-12-03T09:21:30.441Z,89.66
2022-12-03T09:23:59.728Z,89.73
2022-12-03T09:26:28.358Z,89.95
2022-12-03T09:28:56.562Z,89.85
2022-12-03T09:31:24.587Z,89.76
2022-12-03T09:33:52.686Z,89.68
2022-12-03T09:36:20.616Z,89.79
2022-12-03T09:38:48.595Z,90.02
2022-12-03T09:41:17.938Z,90.10
2022-12-03T09:46:35.363Z,89.93
2022-12-03T09:49:03.854Z,89.78
2022-12-03T09:51:33.674Z,89.97
2022-12-03T09:54:02.582Z,90.17
2022-12-03T09:56:32.071Z,90.33
2022-12-03T09:59:00.353Z,90.44
2022-12-03T10:01:30.538Z,90.56
2022-12-03T10:03:59.457Z,90.86
2022-12-03T10:06:27.549Z,91.03
2022-12-03T10:08:56.690Z,91.25
2022-12-03T10:11:26.045Z,91.45
2022-12-03T10:13:56.544Z,91.63
2022-12-03T10:16:24.821Z,91.86
2022-12-03T10:18:54.201Z,91.93
2022-12-03T10:21:30.762Z,91.88
2022-12-03T10:24:21.646Z,91.89
2022-12-03T10:26:52.534Z,91.99
2022-12-03T10:29:26.988Z,92.11
2022-12-03T10:32:01.686Z,92.06
2022-12-03T10:34:32.042Z,91.95
2022-12-03T10:37:14.766Z,92.09
2022-12-03T10:39:57.578Z,92.23
2022-12-03T10:42:26.695Z,92.17
2022-12-03T10:45:14.273Z,92.30
2022-12-03T10:47:42.753Z,92.25
2022-12-03T10:50:17.954Z,92.24
2022-12-03T10:52:47.076Z,92.07
2022-12-03T10:55:16.221Z,91.99
2022-12-03T10:57:46.141Z,92.05
2022-12-03T11:00:19.425Z,92.06
2022-12-03T11:02:53.285Z,91.73
2022-12-03T11:05:27.683Z,91.61
2022-12-03T11:07:55.962Z,91.69
2022-12-03T11:10:24.515Z,91.61
2022-12-03T11:13:30.467Z,91.32
2022-12-03T11:16:00.839Z,91.17
2022-12-03T11:19:01.168Z,91.27
2022-12-03T11:21:30.091Z,91.29
2022-12-03T11:24:19.973Z,91.17
2022-12-03T11:27:07.727Z,90.96
2022-12-03T11:29:56.043Z,90.88
2022-12-03T11:33:22.672Z,90.55
2022-12-03T11:36:16.797Z,90.67
2022-12-03T11:38:52.988Z,90.82
2022-12-03T11:41:24.856Z,90.85
2022-12-03T11:44:01.252Z,90.73
2022-12-03T11:46:31.669Z,90.75
2022-12-03T11:49:00.823Z,90.82
2022-12-03T11:51:30.905Z,90.73
2022-12-03T11:54:00.195Z,90.67
2022-12-03T11:56:30.812Z,90.67
2022-12-03T11:59:00.196Z,90.66
2022-12-03T12:01:38.563Z,90.57
2022-12-03T12:04:08.354Z,90.53
2022-12-03T12:06:42.841Z,90.58
2022-12-03T12:09:11.305Z,90.64
2022-12-03T12:11:41.522Z,90.46
2022-12-03T12:14:10.257Z,90.59
2022-12-03T12:16:50.501Z,90.51
2022-12-03T12:19:32.748Z,90.59
2022-12-03T12:22:20.058Z,90.63
2022-12-03T12:24:53.491Z,90.69
2022-12-03T12:27:23.475Z,90.68
2022-12-03T12:29:54.231Z,90.51
2022-12-03T12:32:25.500Z,90.42
2022-12-03T12:34:56.079Z,90.42
2022-12-03T12:37:31.662Z,90.21
2022-12-03T12:39:59.895Z,90.10
2022-12-03T12:42:33.755Z,90.22
2022-12-03T12:45:09.461Z,90.51
2022-12-03T12:47:37.827Z,90.53
2022-12-03T12:50:10.740Z,90.57
2022-12-03T12:52:48.647Z,90.46
2022-12-03T12:55:17.406Z,90.48
2022-12-03T12:57:45.702Z,90.57
2022-12-03T13:00:20.564Z,90.70
2022-12-03T13:02:53.086Z,90.75
2022-12-03T13:05:21.468Z,90.74
2022-12-03T13:07:53.513Z,90.75
2022-12-03T13:10:35.675Z,90.86
2022-12-03T13:13:15.148Z,90.88
2022-12-03T13:15:48.171Z,90.97
2022-12-03T13:18:28.551Z,91.09
2022-12-03T13:20:57.018Z,91.22
2022-12-03T13:23:32.531Z,91.18
2022-12-03T13:26:15.616Z,91.20
2022-12-03T13:28:50.919Z,91.25
2022-12-03T13:31:26.812Z,91.22
2022-12-03T13:33:55.563Z,91.23
2022-12-03T13:36:29.920Z,91.20
2022-12-03T13:38:59.601Z,91.30
2022-12-03T13:41:46.408Z,91.19
2022-12-03T13:44:17.547Z,91.22
2022-12-03T13:46:46.782Z,91.25
2022-12-03T13:49:17.854Z,91.25
2022-12-03T13:51:47.198Z,91.15
2022-12-03T13:54:21.012Z,91.21
2022-12-03T13:56:50.122Z,91.15
2022-12-03T13:59:22.911Z,91.06
2022-12-03T14:01:54.498Z,90.91
2022-12-03T14:04:22.484Z,90.92
2022-12-03T14:06:50.629Z,90.84
2022-12-03T14:09:19.987Z,90.95
2022-12-03T14:12:05.917Z,90.93
2022-12-03T14:14:34.039Z,90.83
2022-12-03T14:17:02.159Z,90.92
2022-12-03T14:19:30.208Z,90.87
2022-12-03T14:21:58.364Z,90.81
2022-12-03T14:24:27.753Z,90.76
2022-12-03T14:26:55.764Z,90.75
2022-12-03T14:29:23.865Z,90.77
2022-12-03T14:31:51.868Z,90.83
2022-12-03T14:34:19.905Z,90.92
2022-12-03T14:36:47.976Z,90.79
2022-12-03T14:39:16.214Z,90.80
2022-12-03T14:41:59.549Z,90.80
2022-12-03T14:44:28.386Z,90.76
2022-12-03T14:46:57.492Z,90.83
2022-12-03T14:49:25.781Z,91.33
2022-12-03T14:51:53.959Z,91.05
2022-12-03T14:54:22.083Z,90.97
2022-12-03T14:56:51.758Z,90.93
2022-12-03T14:59:25.878Z,90.92
2022-12-03T15:01:55.880Z,90.93
2022-12-03T15:04:24.097Z,90.87
2022-12-03T15:06:52.612Z,90.80
2022-12-03T15:09:21.145Z,90.84
2022-12-03T15:11:49.408Z,90.95
2022-12-03T15:14:18.810Z,90.97
2022-12-03T15:16:46.993Z,90.95
2022-12-03T15:19:15.111Z,90.94
2022-12-03T15:21:43.464Z,90.91
2022-12-03T15:24:11.627Z,90.98
2022-12-03T15:26:39.688Z,91.05
2022-12-03T15:29:08.766Z,91.09
2022-12-03T15:31:38.192Z,91.18
2022-12-03T15:34:06.258Z,91.28
2022-12-03T15:36:34.478Z,91.27
2022-12-03T15:39:02.528Z,91.33
2022-12-03T15:41:30.680Z,91.23
2022-12-03T15:44:00.126Z,91.32
2022-12-03T15:46:28.310Z,91.38
2022-12-03T15:48:58.185Z,91.39
2022-12-03T15:51:26.528Z,91.52
2022-12-03T15:53:54.679Z,91.57
2022-12-03T15:56:22.776Z,91.74
2022-12-03T15:58:50.850Z,91.68
2022-12-03T16:01:18.907Z,91.72
2022-12-03T16:03:46.929Z,91.80
2022-12-03T16:06:18.187Z,91.85
2022-12-03T16:08:46.410Z,91.86
2022-12-03T16:11:14.570Z,91.92
2022-12-03T16:13:42.750Z,91.92
2022-12-03T16:16:11.111Z,91.98
2022-12-03T16:18:39.208Z,92.06
2022-12-03T16:21:07.389Z,92.16
2022-12-03T16:23:36.891Z,92.16
2022-12-03T16:26:04.931Z,92.19
2022-12-03T16:28:32.936Z,92.29
2022-12-03T16:31:01.053Z,92.30
2022-12-03T16:33:29.344Z,92.35
2022-12-03T16:35:57.450Z,92.37
2022-12-03T16:38:25.532Z,92.45
2022-12-03T16:40:55.008Z,92.47
2022-12-03T16:43:23.028Z,92.49
2022-12-03T16:46:20.378Z,92.60
2022-12-03T16:48:48.710Z,92.61
2022-12-03T16:51:17.019Z,92.64
2022-12-03T16:53:45.157Z,92.64
2022-12-03T16:56:14.798Z,92.61
2022-12-03T16:58:42.900Z,92.58
2022-12-03T17:01:11.590Z,92.64
2022-12-03T17:03:39.719Z,92.70
2022-12-03T17:06:09.177Z,92.61
2022-12-03T17:08:37.316Z,92.61
2022-12-03T17:11:05.593Z,92.62
2022-12-03T17:13:34.997Z,92.67
2022-12-03T17:16:02.978Z,92.70
2022-12-03T17:18:31.211Z,92.68
2022-12-03T17:20:59.204Z,92.73
2022-12-03T17:23:27.202Z,92.74
2022-12-03T17:25:55.657Z,92.71
2022-12-03T17:28:23.898Z,92.73
2022-12-03T17:30:53.236Z,92.77
2022-12-03T17:33:21.311Z,92.73
2022-12-03T17:35:49.374Z,92.74
2022-12-03T17:38:17.424Z,92.75
2022-12-03T17:40:45.460Z,92.76
2022-12-03T17:43:13.518Z,92.77
2022-12-03T17:45:41.712Z,92.67
2022-12-03T17:48:11.132Z,92.68
2022-12-03T17:50:39.245Z,92.67
2022-12-03T17:53:10.257Z,92.59
2022-12-03T17:55:44.553Z,92.53
2022-12-03T17:58:13.293Z,92.50
2022-12-03T18:00:41.430Z,92.50
2022-12-03T18:03:10.811Z,92.46
2022-12-03T18:05:38.839Z,92.47
2022-12-03T18:08:07.512Z,92.49
2022-12-03T18:10:35.601Z,92.51
2022-12-03T18:13:03.742Z,92.46
2022-12-03T18:15:32.153Z,92.51
2022-12-03T18:18:00.165Z,92.50
2022-12-03T18:20:29.523Z,92.49
2022-12-03T18:22:58.700Z,92.52
2022-12-03T18:25:26.975Z,92.51
2022-12-03T18:27:54.995Z,92.53
2022-12-03T18:30:23.538Z,92.46
2022-12-03T18:32:51.581Z,92.39
2022-12-03T18:35:20.657Z,92.39
2022-12-03T18:37:51.396Z,92.43
2022-12-03T18:40:22.115Z,92.51
2022-12-03T18:42:50.161Z,92.50
2022-12-03T18:45:18.464Z,92.42
2022-12-03T18:47:46.778Z,92.45
2022-12-03T18:50:14.920Z,92.46
2022-12-03T18:52:42.988Z,92.43
2022-12-03T18:55:16.160Z,92.41
2022-12-03T18:57:44.228Z,92.45
2022-12-03T19:00:14.211Z,92.44
2022-12-03T19:05:30.424Z,92.44
2022-12-03T19:07:58.633Z,92.37
2022-12-03T19:10:28.285Z,92.43
2022-12-03T19:12:56.460Z,92.44
2022-12-03T19:15:24.522Z,92.49
2022-12-03T19:17:53.537Z,92.55
2022-12-03T19:20:21.927Z,92.48
2022-12-03T19:22:51.442Z,92.52
2022-12-03T19:25:20.877Z,92.52
2022-12-03T19:27:50.799Z,92.50
2022-12-03T19:30:19.142Z,92.51
2022-12-03T19:32:51.474Z,92.47
2022-12-03T19:35:21.402Z,92.54
2022-12-03T19:37:49.772Z,92.63
2022-12-03T19:40:18.354Z,92.56
2022-12-03T19:42:47.612Z,92.60
2022-12-03T19:45:17.282Z,92.66
2022-12-03T19:47:45.297Z,92.64
2022-12-03T19:50:21.053Z,92.55
2022-12-03T19:52:51.273Z,92.47
2022-12-03T19:55:20.532Z,92.44
2022-12-03T19:57:48.639Z,92.54
2022-12-03T20:00:18.620Z,92.63
2022-12-03T20:02:49.501Z,92.62
2022-12-03T20:05:17.814Z,92.68
2022-12-03T20:07:45.976Z,92.65
2022-12-03T20:10:14.015Z,92.61
2022-12-03T20:12:42.030Z,92.66
2022-12-03T20:15:11.090Z,92.67
2022-12-03T20:17:40.631Z,92.70
2022-12-03T20:20:09.891Z,92.70
2022-12-03T20:22:38.005Z,92.70
2022-12-03T20:25:06.707Z,92.77
2022-12-03T20:27:34.781Z,92.77
2022-12-03T20:30:02.826Z,92.72
2022-12-03T20:32:30.945Z,92.72
2022-12-03T20:35:00.368Z,92.74
2022-12-03T20:37:28.320Z,92.79
2022-12-03T20:39:56.627Z,92.72
2022-12-03T20:42:24.864Z,92.72
2022-12-03T20:44:53.012Z,92.74
2022-12-03T20:47:21.378Z,92.77
2022-12-03T20:49:50.657Z,92.75
2022-12-03T20:52:20.033Z,92.76
2022-12-03T20:54:48.070Z,92.78
2022-12-03T20:57:16.116Z,92.82
2022-12-03T20:59:44.268Z,92.77
2022-12-03T21:02:12.772Z,92.78
2022-12-03T21:04:41.170Z,92.78
2022-12-03T21:07:09.124Z,92.83
2022-12-03T21:09:38.500Z,92.85
2022-12-03T21:12:07.078Z,92.85
2022-12-03T21:14:35.823Z,92.86
2022-12-03T21:17:08.741Z,92.88
2022-12-03T21:19:37.837Z,92.92
2022-12-03T21:22:06.275Z,92.95
2022-12-03T21:24:34.664Z,92.88
2022-12-03T21:27:04.216Z,92.96
2022-12-03T21:29:32.357Z,92.96
2022-12-03T21:32:01.412Z,92.94
2022-12-03T21:34:35.776Z,92.91
2022-12-03T21:37:05.134Z,92.95
2022-12-03T21:39:33.362Z,93.01
2022-12-03T21:42:34.778Z,92.99
2022-12-03T21:44:51.018Z,93.01
2022-12-03T21:47:19.161Z,93.01
2022-12-03T21:49:47.328Z,92.87
2022-12-03T21:52:15.414Z,92.94
2022-12-03T21:54:43.563Z,92.91
2022-12-03T21:57:11.679Z,92.91
2022-12-03T21:59:39.789Z,92.97
2022-12-03T22:02:10.244Z,92.92
2022-12-03T22:04:38.554Z,92.94
2022-12-03T22:07:07.961Z,92.97
2022-12-03T22:09:36.166Z,92.96
2022-12-03T22:12:04.267Z,92.93
2022-12-03T22:14:32.323Z,92.92
2022-12-03T22:17:00.598Z,92.89
2022-12-03T22:19:30.294Z,92.95
2022-12-03T22:21:58.506Z,92.95
2022-12-03T22:24:26.644Z,93.01
2022-12-03T22:26:55.022Z,92.99
2022-12-03T22:29:23.335Z,93.01
2022-12-03T22:31:51.665Z,93.01
2022-12-03T22:34:19.834Z,93.02
2022-12-03T22:36:49.273Z,93.00
2022-12-03T22:39:17.916Z,93.05
2022-12-03T22:41:46.040Z,93.10
2022-12-03T22:44:14.052Z,93.07
2022-12-03T22:46:42.338Z,93.08
2022-12-03T22:49:10.751Z,93.09
2022-12-03T22:51:39.046Z,93.09
2022-12-03T22:54:08.500Z,93.05
2022-12-03T22:56:37.336Z,93.00
2022-12-03T22:59:05.498Z,93.01
2022-12-03T23:01:35.479Z,93.06
2022-12-03T23:04:04.545Z,93.02
2022-12-03T23:06:32.987Z,93.01
2022-12-03T23:09:01.171Z,93.06
2022-12-03T23:11:30.563Z,93.05
2022-12-03T23:13:59.769Z,93.07
2022-12-03T23:16:30.452Z,93.09
2022-12-03T23:18:58.999Z,93.12
2022-12-03T23:21:30.202Z,93.12
2022-12-03T23:23:58.930Z,93.17
2022-12-03T23:26:27.907Z,93.10
2022-12-03T23:28:57.713Z,93.17
2022-12-03T23:31:28.333Z,93.17
2022-12-03T23:33:57.420Z,93.18
2022-12-03T23:36:27.306Z,93.20
2022-12-03T23:38:56.774Z,93.20
2022-12-03T23:41:25.579Z,93.25
2022-12-03T23:43:54.066Z,93.23
2022-12-03T23:46:26.270Z,93.28
2022-12-03T23:48:54.367Z,93.35
2022-12-03T23:51:25.070Z,93.39
2022-12-03T23:53:53.848Z,93.39
2022-12-03T23:56:24.733Z,93.40
2022-12-03T23:58:52.807Z,93.39
